9IL6 weather

Weishaupt Airport
Mackinaw, Illinois, United States

Public forecast

Using degrees Fahrenheit for public forecast. Weather courtesy of forecast.io.

Closest aviation weather report (METAR) to Weishaupt Airport

Closest report is General Wayne A. Downing Peoria International Airport, 17.4 nm (32.2 km) WNW. Retrieved 2020/05/31 12:54 UTC (16 minutes ago):

KPIA 311254Z 08010KT 10SM CLR 14/08 A3033 RMK AO2 SLP268 T01440083

Closest aviation forecast (TAF) to Weishaupt Airport

Closest forecast is General Wayne A. Downing Peoria International Airport, 17.4 nm (32.2 km) WNW. Retrieved 2020/05/31 13:40 UTC (0 seconds ago):

TAF KPIA 311237Z 3113/0112 08007KT P6SM FEW250 FM311500 12007KT P6SM SCT250 FM312000 15007KT P6SM BKN250 FM010900 15006KT P6SM BKN100